createdAt,value
2022-09-22T00:01:18.793Z,6.40
2022-09-22T00:03:51.667Z,6.30
2022-09-22T00:06:21.350Z,6.20
2022-09-22T00:08:59.056Z,6.20
2022-09-22T00:11:36.365Z,6.20
2022-09-22T00:14:10.837Z,6.00
2022-09-22T00:16:40.855Z,6.00
2022-09-22T00:19:32.218Z,6.00
2022-09-22T00:22:00.060Z,6.00
2022-09-22T00:24:29.560Z,6.00
2022-09-22T00:26:58.315Z,5.90
2022-09-22T00:29:28.136Z,5.90
2022-09-22T00:31:56.124Z,5.90
2022-09-22T00:34:25.760Z,5.90
2022-09-22T00:36:52.957Z,5.90
2022-09-22T00:39:20.216Z,5.90
2022-09-22T00:41:49.918Z,5.90
2022-09-22T00:44:42.952Z,5.90
2022-09-22T00:47:12.970Z,5.90
2022-09-22T00:50:10.081Z,5.90
2022-09-22T00:52:57.722Z,5.80
2022-09-22T00:55:57.698Z,5.80
2022-09-22T00:58:38.298Z,5.80
2022-09-22T01:01:08.429Z,5.70
2022-09-22T01:03:39.657Z,5.60
2022-09-22T01:06:10.559Z,5.60
2022-09-22T01:08:39.359Z,5.70
2022-09-22T01:11:07.824Z,5.60
2022-09-22T01:13:38.191Z,5.60
2022-09-22T01:16:30.396Z,5.50
2022-09-22T01:19:30.841Z,5.40
2022-09-22T01:22:22.247Z,5.50
2022-09-22T01:25:01.454Z,5.50
2022-09-22T01:27:33.256Z,5.50
2022-09-22T01:30:24.226Z,5.40
2022-09-22T01:33:12.465Z,5.30
2022-09-22T01:36:10.598Z,5.40
2022-09-22T01:38:50.148Z,5.40
2022-09-22T01:41:24.047Z,5.30
2022-09-22T01:43:53.944Z,5.30
2022-09-22T01:46:28.358Z,5.20
2022-09-22T01:49:00.795Z,5.30
2022-09-22T01:51:33.355Z,5.20
2022-09-22T01:54:07.912Z,5.10
2022-09-22T01:56:37.251Z,5.10
2022-09-22T01:59:07.008Z,5.10
2022-09-22T02:01:39.847Z,5.10
2022-09-22T02:04:11.961Z,5.10
2022-09-22T02:06:58.621Z,5.10
2022-09-22T02:09:30.732Z,5.10
2022-09-22T02:11:59.371Z,5.10
2022-09-22T02:14:26.930Z,5.00
2022-09-22T02:16:54.694Z,5.10
2022-09-22T02:19:28.021Z,5.10
2022-09-22T02:21:55.353Z,5.00
2022-09-22T02:24:30.479Z,5.00
2022-09-22T02:26:59.212Z,5.00
2022-09-22T02:29:30.844Z,5.00
2022-09-22T02:31:58.615Z,5.00
2022-09-22T02:34:25.898Z,5.00
2022-09-22T02:37:22.531Z,5.00
2022-09-22T02:40:28.244Z,5.00
2022-09-22T02:43:28.750Z,4.90
2022-09-22T02:46:40.261Z,4.90
2022-09-22T02:49:14.015Z,4.90
2022-09-22T02:51:42.173Z,4.90
2022-09-22T02:54:09.377Z,4.80
2022-09-22T02:56:37.649Z,4.90
2022-09-22T02:59:04.759Z,4.90
2022-09-22T03:01:32.102Z,4.90
2022-09-22T03:03:59.097Z,4.90
2022-09-22T03:06:26.497Z,4.80
2022-09-22T03:08:53.709Z,4.80
2022-09-22T03:11:20.766Z,4.80
2022-09-22T03:13:47.815Z,4.80
2022-09-22T03:16:14.863Z,4.80
2022-09-22T03:18:42.027Z,4.80
2022-09-22T03:21:08.932Z,4.80
2022-09-22T03:23:36.228Z,4.80
2022-09-22T03:26:03.336Z,4.80
2022-09-22T03:28:30.284Z,4.80
2022-09-22T03:30:57.595Z,4.70
2022-09-22T03:33:24.676Z,4.60
2022-09-22T03:35:51.722Z,4.60
2022-09-22T03:38:18.869Z,4.60
2022-09-22T03:40:53.284Z,4.60
2022-09-22T03:43:20.528Z,4.60
2022-09-22T03:45:47.732Z,4.70
2022-09-22T03:48:14.852Z,4.70
2022-09-22T03:50:42.535Z,4.70
2022-09-22T03:53:09.924Z,4.60
2022-09-22T03:55:37.442Z,4.50
2022-09-22T03:58:05.082Z,4.50
2022-09-22T04:00:32.023Z,4.50
2022-09-22T04:02:59.072Z,4.50
2022-09-22T04:05:26.897Z,4.50
2022-09-22T04:07:54.680Z,4.50
2022-09-22T04:10:21.870Z,4.40
2022-09-22T04:12:49.537Z,4.40
2022-09-22T04:15:16.653Z,4.50
2022-09-22T04:17:46.335Z,4.50
2022-09-22T04:20:13.863Z,4.50
2022-09-22T04:22:41.085Z,4.60
2022-09-22T04:25:08.788Z,4.50
2022-09-22T04:27:36.795Z,4.50
2022-09-22T04:30:06.003Z,4.50
2022-09-22T04:32:32.963Z,4.50
2022-09-22T04:34:59.957Z,4.50
2022-09-22T04:37:27.344Z,4.50
2022-09-22T04:39:55.560Z,4.60
2022-09-22T04:42:22.806Z,4.60
2022-09-22T04:44:49.831Z,4.60
2022-09-22T04:47:16.832Z,4.60
2022-09-22T04:49:44.039Z,4.60
2022-09-22T04:52:10.996Z,4.60
2022-09-22T04:54:38.273Z,4.60
2022-09-22T04:57:05.910Z,4.50
2022-09-22T04:59:32.840Z,4.50
2022-09-22T05:01:59.884Z,4.40
2022-09-22T05:04:26.857Z,4.40
2022-09-22T05:06:54.309Z,4.40
2022-09-22T05:09:21.898Z,4.40
2022-09-22T05:11:51.784Z,4.50
2022-09-22T05:14:22.797Z,4.40
2022-09-22T05:16:53.020Z,4.40
2022-09-22T05:19:21.128Z,4.50
2022-09-22T05:21:48.144Z,4.50
2022-09-22T05:24:15.033Z,4.50
2022-09-22T05:26:42.023Z,4.60
2022-09-22T05:29:08.972Z,4.60
2022-09-22T05:31:36.089Z,4.70
2022-09-22T05:34:03.091Z,4.80
2022-09-22T05:36:30.048Z,4.80
2022-09-22T05:38:57.146Z,4.80
2022-09-22T05:41:24.911Z,4.90
2022-09-22T05:43:51.930Z,4.90
2022-09-22T05:46:18.902Z,5.00
2022-09-22T05:48:45.953Z,5.10
2022-09-22T05:51:12.897Z,5.20
2022-09-22T05:53:39.925Z,5.20
2022-09-22T05:56:06.858Z,5.30
2022-09-22T05:58:33.887Z,5.30
2022-09-22T06:01:01.006Z,5.30
2022-09-22T06:03:28.282Z,5.30
2022-09-22T06:05:55.472Z,5.30
2022-09-22T06:08:22.714Z,5.40
2022-09-22T06:10:51.437Z,5.50
2022-09-22T06:13:18.501Z,5.60
2022-09-22T06:15:49.114Z,5.70
2022-09-22T06:18:23.372Z,5.80
2022-09-22T06:20:51.333Z,5.90
2022-09-22T06:23:19.174Z,6.00
2022-09-22T06:25:46.249Z,6.10
2022-09-22T06:28:14.681Z,6.30
2022-09-22T06:30:42.389Z,6.40
2022-09-22T06:33:11.284Z,6.60
2022-09-22T06:35:40.611Z,6.90
2022-09-22T06:38:15.071Z,7.00
2022-09-22T06:40:43.722Z,7.10
2022-09-22T06:43:22.627Z,7.50
2022-09-22T06:45:51.523Z,7.70
2022-09-22T06:48:21.563Z,7.70
2022-09-22T06:50:53.470Z,7.90
2022-09-22T06:53:24.948Z,7.90
2022-09-22T06:55:54.263Z,8.00
2022-09-22T06:58:22.524Z,8.20
2022-09-22T07:00:50.662Z,8.30
2022-09-22T07:03:26.480Z,8.60
2022-09-22T07:05:54.011Z,8.60
2022-09-22T07:08:23.272Z,8.60
2022-09-22T07:11:04.273Z,8.80
2022-09-22T07:13:32.479Z,9.00
2022-09-22T07:16:04.918Z,9.50
2022-09-22T07:18:32.081Z,9.50
2022-09-22T07:21:04.227Z,9.40
2022-09-22T07:23:31.302Z,9.50
2022-09-22T07:26:01.011Z,9.80
2022-09-22T07:28:28.940Z,9.80
2022-09-22T07:30:59.663Z,10.00
2022-09-22T07:33:26.995Z,10.10
2022-09-22T07:36:15.782Z,10.40
2022-09-22T07:38:44.478Z,10.50
2022-09-22T07:41:14.316Z,10.60
2022-09-22T07:43:42.355Z,10.60
2022-09-22T07:46:09.569Z,10.80
2022-09-22T07:48:37.823Z,11.00
2022-09-22T07:51:14.313Z,11.10
2022-09-22T07:53:43.460Z,11.10
2022-09-22T07:56:12.594Z,11.20
2022-09-22T07:58:50.619Z,11.40
2022-09-22T08:01:20.402Z,11.60
2022-09-22T08:03:47.867Z,12.00
2022-09-22T08:06:18.349Z,12.30
2022-09-22T08:08:48.404Z,12.80
2022-09-22T08:11:18.404Z,13.60
2022-09-22T08:13:53.494Z,15.30
2022-09-22T08:16:22.751Z,19.60
2022-09-22T08:18:56.253Z,22.60
2022-09-22T08:21:28.102Z,24.70
2022-09-22T08:23:55.066Z,25.60
2022-09-22T08:26:23.024Z,26.50
2022-09-22T08:28:55.149Z,27.30
2022-09-22T08:31:23.422Z,28.10
2022-09-22T08:33:52.235Z,28.20
2022-09-22T08:36:19.334Z,28.70
2022-09-22T08:38:49.650Z,29.60
2022-09-22T08:41:22.508Z,29.80
2022-09-22T08:43:55.820Z,29.90
2022-09-22T08:46:27.607Z,30.20
2022-09-22T08:49:39.348Z,30.00
2022-09-22T08:52:09.117Z,30.20
2022-09-22T08:54:36.472Z,29.60
2022-09-22T08:57:29.937Z,28.20
2022-09-22T09:00:26.342Z,25.50
2022-09-22T09:03:16.953Z,23.30
2022-09-22T09:06:17.729Z,21.40
2022-09-22T09:09:25.642Z,20.60
2022-09-22T09:12:11.517Z,19.10
2022-09-22T09:14:47.404Z,19.20
2022-09-22T09:17:35.650Z,18.80
2022-09-22T09:20:15.478Z,19.30
2022-09-22T09:22:48.503Z,19.40
2022-09-22T09:25:37.723Z,19.40
2022-09-22T09:28:18.005Z,19.60
2022-09-22T09:30:51.300Z,19.80
2022-09-22T09:33:33.639Z,19.70
2022-09-22T09:36:02.186Z,19.30
2022-09-22T09:38:43.047Z,19.60
2022-09-22T09:41:22.699Z,19.60
2022-09-22T09:43:54.430Z,19.30
2022-09-22T09:46:44.664Z,19.10
2022-09-22T09:49:16.871Z,18.60
2022-09-22T09:51:50.619Z,18.50
2022-09-22T09:54:19.371Z,18.60
2022-09-22T09:57:13.744Z,18.60
2022-09-22T10:00:32.254Z,18.70
2022-09-22T10:03:24.480Z,18.50
2022-09-22T10:06:06.450Z,18.20
2022-09-22T10:08:41.683Z,18.00
2022-09-22T10:11:10.487Z,18.00
2022-09-22T10:13:42.160Z,17.90
2022-09-22T10:16:28.878Z,17.80
2022-09-22T10:18:58.659Z,17.60
2022-09-22T10:21:26.909Z,17.80
2022-09-22T10:23:56.077Z,17.80
2022-09-22T10:26:55.202Z,17.60
2022-09-22T10:29:22.509Z,17.70
2022-09-22T10:32:11.970Z,17.80
2022-09-22T10:34:40.478Z,18.10
2022-09-22T10:37:11.132Z,18.10
2022-09-22T10:39:58.057Z,17.60
2022-09-22T10:42:36.059Z,17.60
2022-09-22T10:45:10.496Z,17.50
2022-09-22T10:47:55.482Z,17.50
2022-09-22T10:50:48.737Z,17.50
2022-09-22T10:53:17.658Z,17.40
2022-09-22T10:56:09.944Z,17.20
2022-09-22T10:58:49.043Z,17.10
2022-09-22T11:01:44.142Z,17.00
2022-09-22T11:04:30.211Z,17.00
2022-09-22T11:07:44.011Z,16.80
2022-09-22T11:10:41.288Z,16.60
2022-09-22T11:13:16.527Z,16.60
2022-09-22T11:15:58.666Z,16.70
2022-09-22T11:18:32.944Z,16.70
2022-09-22T11:21:20.872Z,16.70
2022-09-22T11:24:25.468Z,16.70
2022-09-22T11:27:01.366Z,16.80
2022-09-22T11:30:01.127Z,16.90
2022-09-22T11:32:31.014Z,16.90
2022-09-22T11:35:13.420Z,17.20
2022-09-22T11:37:52.447Z,17.40
2022-09-22T11:40:46.591Z,17.70
2022-09-22T11:43:42.026Z,17.70
2022-09-22T11:46:23.135Z,17.20
2022-09-22T11:49:22.488Z,17.50
2022-09-22T11:52:17.438Z,17.20
2022-09-22T11:55:19.473Z,17.30
2022-09-22T11:57:51.159Z,17.60
2022-09-22T12:00:19.547Z,17.50
2022-09-22T12:03:02.145Z,17.30
2022-09-22T12:05:42.433Z,17.40
2022-09-22T12:08:26.037Z,17.40
2022-09-22T12:10:55.814Z,17.50
2022-09-22T12:13:25.603Z,17.70
2022-09-22T12:16:12.617Z,17.80
2022-09-22T12:19:21.826Z,17.70
2022-09-22T12:22:07.036Z,17.50
2022-09-22T12:24:38.805Z,17.20
2022-09-22T12:27:12.581Z,17.10
2022-09-22T12:29:39.755Z,17.10
2022-09-22T12:32:18.938Z,17.10
2022-09-22T12:34:45.932Z,17.20
2022-09-22T12:37:22.882Z,17.20
2022-09-22T12:39:49.987Z,17.10
2022-09-22T12:42:22.292Z,17.20
2022-09-22T12:44:53.937Z,17.30
2022-09-22T12:47:27.587Z,17.30
2022-09-22T12:49:57.529Z,17.20
2022-09-22T12:52:39.806Z,17.00
2022-09-22T12:55:19.868Z,17.30
2022-09-22T12:57:48.717Z,17.50
2022-09-22T13:00:44.987Z,17.50
2022-09-22T13:03:27.328Z,17.30
2022-09-22T13:06:23.306Z,17.40
2022-09-22T13:08:52.973Z,17.20
2022-09-22T13:11:40.546Z,17.30
2022-09-22T13:14:46.347Z,17.40
2022-09-22T13:17:46.227Z,17.20
2022-09-22T13:20:24.031Z,17.00
2022-09-22T13:22:52.129Z,16.70
2022-09-22T13:25:25.468Z,16.70
2022-09-22T13:28:08.859Z,16.60
2022-09-22T13:30:37.156Z,16.40
2022-09-22T13:33:04.137Z,16.30
2022-09-22T13:35:38.862Z,16.20
2022-09-22T13:38:07.327Z,16.00
2022-09-22T13:40:36.920Z,15.80
2022-09-22T13:43:09.532Z,15.80
2022-09-22T13:45:39.943Z,15.90
2022-09-22T13:48:14.441Z,16.00
2022-09-22T13:51:04.101Z,15.80
2022-09-22T13:53:32.138Z,15.90
2022-09-22T13:55:59.838Z,15.80
2022-09-22T13:58:38.503Z,15.80
2022-09-22T14:01:17.984Z,15.80
2022-09-22T14:03:45.779Z,15.40
2022-09-22T14:06:19.071Z,15.30
2022-09-22T14:08:48.378Z,15.40
2022-09-22T14:11:30.435Z,15.40
2022-09-22T14:14:00.755Z,15.50
2022-09-22T14:16:43.600Z,15.50
2022-09-22T14:19:29.224Z,15.60
2022-09-22T14:22:01.124Z,15.70
2022-09-22T14:24:28.621Z,15.80
2022-09-22T14:27:04.033Z,15.70
2022-09-22T14:29:41.005Z,15.60
2022-09-22T14:32:17.033Z,15.60
2022-09-22T14:34:57.353Z,15.50
2022-09-22T14:37:35.610Z,15.50
2022-09-22T14:40:06.162Z,15.50
2022-09-22T14:42:34.136Z,15.50
2022-09-22T14:45:09.954Z,15.60
2022-09-22T14:47:41.606Z,15.70
2022-09-22T14:50:08.735Z,15.70
2022-09-22T14:52:40.106Z,15.80
2022-09-22T14:55:18.677Z,15.70
2022-09-22T14:57:48.510Z,15.60
2022-09-22T15:00:35.820Z,15.50
2022-09-22T15:03:14.518Z,15.60
2022-09-22T15:05:41.692Z,15.50
2022-09-22T15:08:15.094Z,15.40
2022-09-22T15:10:51.353Z,15.40
2022-09-22T15:13:38.121Z,15.40
2022-09-22T15:16:06.825Z,15.40
2022-09-22T15:18:33.955Z,15.30
2022-09-22T15:21:14.124Z,15.40
2022-09-22T15:23:45.180Z,15.40
2022-09-22T15:26:25.178Z,15.40
2022-09-22T15:28:54.950Z,15.30
2022-09-22T15:31:29.003Z,15.40
2022-09-22T15:34:01.322Z,15.30
2022-09-22T15:36:33.009Z,15.30
2022-09-22T15:39:06.867Z,15.40
2022-09-22T15:41:34.977Z,15.40
2022-09-22T15:44:03.065Z,15.40
2022-09-22T15:46:37.828Z,15.40
2022-09-22T15:49:18.188Z,15.40
2022-09-22T15:51:46.032Z,15.30
2022-09-22T15:54:21.812Z,15.20
2022-09-22T15:56:51.843Z,14.90
2022-09-22T15:59:28.060Z,14.80
2022-09-22T16:01:57.098Z,14.80
2022-09-22T16:04:24.667Z,14.70
2022-09-22T16:06:58.210Z,14.80
2022-09-22T16:09:25.173Z,14.70
2022-09-22T16:11:52.145Z,14.70
2022-09-22T16:14:19.893Z,14.60
2022-09-22T16:16:46.788Z,14.60
2022-09-22T16:19:13.992Z,14.50
2022-09-22T16:21:49.909Z,14.50
2022-09-22T16:24:16.856Z,14.30
2022-09-22T16:26:43.753Z,14.10
2022-09-22T16:29:11.369Z,14.00
2022-09-22T16:31:39.123Z,13.90
2022-09-22T16:34:07.117Z,13.80
2022-09-22T16:36:36.217Z,13.80
2022-09-22T16:39:04.295Z,13.70
2022-09-22T16:41:33.211Z,13.70
2022-09-22T16:44:01.145Z,13.50
2022-09-22T16:46:30.477Z,13.30
2022-09-22T16:49:06.105Z,13.20
2022-09-22T16:51:44.293Z,13.30
2022-09-22T16:54:13.829Z,13.30
2022-09-22T16:56:43.527Z,13.20
2022-09-22T16:59:13.293Z,13.20
2022-09-22T17:01:40.339Z,13.20
2022-09-22T17:04:08.572Z,13.20
2022-09-22T17:06:37.732Z,13.20
2022-09-22T17:09:05.860Z,13.20
2022-09-22T17:11:36.362Z,13.20
2022-09-22T17:14:12.420Z,13.00
2022-09-22T17:16:42.481Z,12.90
2022-09-22T17:19:21.440Z,12.80
2022-09-22T17:21:51.084Z,12.80
2022-09-22T17:24:19.437Z,12.80
2022-09-22T17:26:48.630Z,12.80
2022-09-22T17:29:17.580Z,12.80
2022-09-22T17:31:48.098Z,12.70
2022-09-22T17:34:15.884Z,12.70
2022-09-22T17:36:42.921Z,12.70
2022-09-22T17:39:10.694Z,12.70
2022-09-22T17:41:45.474Z,12.60
2022-09-22T17:44:13.874Z,12.50
2022-09-22T17:47:01.850Z,12.30
2022-09-22T17:49:47.323Z,12.30
2022-09-22T17:52:34.795Z,12.10
2022-09-22T17:55:08.077Z,11.90
2022-09-22T17:57:40.485Z,11.90
2022-09-22T18:00:10.957Z,11.90
2022-09-22T18:02:39.037Z,11.90
2022-09-22T18:05:14.588Z,11.80
2022-09-22T18:07:41.909Z,11.70
2022-09-22T18:10:11.001Z,11.70
2022-09-22T18:12:38.366Z,11.60
2022-09-22T18:15:06.036Z,11.50
2022-09-22T18:17:41.688Z,11.40
2022-09-22T18:20:12.834Z,11.30
2022-09-22T18:22:41.441Z,11.00
2022-09-22T18:25:10.577Z,11.00
2022-09-22T18:27:38.316Z,11.00
2022-09-22T18:30:11.326Z,11.10
2022-09-22T18:32:41.041Z,11.00
2022-09-22T18:35:08.286Z,11.00
2022-09-22T18:37:35.278Z,10.90
2022-09-22T18:40:02.614Z,10.70
2022-09-22T18:42:31.280Z,10.70
2022-09-22T18:44:58.509Z,10.60
2022-09-22T18:47:26.780Z,10.60
2022-09-22T18:49:54.202Z,10.50
2022-09-22T18:52:24.976Z,10.50
2022-09-22T18:54:54.182Z,10.50
2022-09-22T18:57:22.944Z,10.40
2022-09-22T18:59:51.435Z,10.20
2022-09-22T19:02:23.258Z,10.30
2022-09-22T19:04:53.593Z,10.30
2022-09-22T19:07:42.575Z,10.30
2022-09-22T19:10:16.429Z,10.10
2022-09-22T19:12:43.587Z,9.90
2022-09-22T19:15:13.942Z,9.80
2022-09-22T19:17:46.424Z,9.80
2022-09-22T19:20:21.147Z,9.80
2022-09-22T19:22:49.619Z,9.90
2022-09-22T19:25:17.505Z,9.80
2022-09-22T19:27:44.643Z,9.70
2022-09-22T19:30:12.265Z,9.80
2022-09-22T19:32:40.472Z,9.70
2022-09-22T19:35:09.297Z,9.70
2022-09-22T19:37:37.333Z,9.60
2022-09-22T19:40:10.007Z,9.50
2022-09-22T19:42:40.345Z,9.50
2022-09-22T19:45:09.524Z,9.50
2022-09-22T19:47:37.611Z,9.40
2022-09-22T19:50:06.556Z,9.40
2022-09-22T19:52:35.243Z,9.40
2022-09-22T19:55:02.646Z,9.40
2022-09-22T19:57:29.637Z,9.40
2022-09-22T19:59:56.858Z,9.40
2022-09-22T20:02:23.985Z,9.30
2022-09-22T20:04:52.178Z,9.30
2022-09-22T20:07:19.204Z,9.20
2022-09-22T20:09:46.174Z,9.20
2022-09-22T20:12:13.132Z,9.20
2022-09-22T20:14:40.513Z,9.10
2022-09-22T20:17:08.994Z,9.20
2022-09-22T20:19:40.200Z,9.10
2022-09-22T20:22:25.379Z,9.00
2022-09-22T20:24:57.273Z,9.00
2022-09-22T20:27:37.193Z,8.80
2022-09-22T20:32:32.484Z,8.80
2022-09-22T20:34:59.588Z,8.70
2022-09-22T20:37:26.691Z,8.70
2022-09-22T20:39:53.813Z,8.70
2022-09-22T20:42:20.820Z,8.70
2022-09-22T20:44:48.540Z,8.60
2022-09-22T20:47:17.600Z,8.60
2022-09-22T20:49:50.676Z,8.60
2022-09-22T20:52:20.656Z,8.60
2022-09-22T20:54:48.563Z,8.50
2022-09-22T20:57:16.302Z,8.50
2022-09-22T20:59:46.127Z,8.40
2022-09-22T21:02:14.892Z,8.40
2022-09-22T21:04:42.292Z,8.40
2022-09-22T21:07:10.339Z,8.30
2022-09-22T21:09:55.924Z,8.30
2022-09-22T21:12:30.007Z,8.20
2022-09-22T21:14:59.104Z,8.30
2022-09-22T21:17:29.891Z,8.20
2022-09-22T21:19:58.030Z,8.00
2022-09-22T21:22:28.179Z,8.00
2022-09-22T21:24:56.058Z,8.00
2022-09-22T21:27:24.411Z,8.00
2022-09-22T21:29:51.550Z,8.00
2022-09-22T21:32:20.053Z,8.00
2022-09-22T21:34:47.127Z,8.00
2022-09-22T21:37:14.622Z,8.00
2022-09-22T21:39:41.558Z,7.80
2022-09-22T21:42:08.558Z,7.80
2022-09-22T21:44:35.453Z,7.80
2022-09-22T21:47:02.419Z,7.80
2022-09-22T21:49:29.426Z,7.70
2022-09-22T21:51:57.505Z,7.70
2022-09-22T21:54:24.856Z,7.70
2022-09-22T21:56:51.913Z,7.60
2022-09-22T21:59:18.894Z,7.60
2022-09-22T22:01:46.016Z,7.50
2022-09-22T22:04:15.136Z,7.40
2022-09-22T22:06:46.784Z,7.40
2022-09-22T22:09:15.890Z,7.40
2022-09-22T22:11:48.390Z,7.40
2022-09-22T22:14:19.976Z,7.40
2022-09-22T22:16:48.073Z,7.30
2022-09-22T22:19:18.274Z,7.30
2022-09-22T22:21:46.155Z,7.30
2022-09-22T22:24:18.268Z,7.30
2022-09-22T22:26:47.255Z,7.30
2022-09-22T22:29:14.506Z,7.10
2022-09-22T22:31:42.269Z,7.10
2022-09-22T22:34:10.570Z,7.10
2022-09-22T22:36:37.829Z,7.10
2022-09-22T22:39:05.234Z,7.10
2022-09-22T22:41:32.130Z,7.00
2022-09-22T22:43:59.683Z,7.00
2022-09-22T22:46:26.612Z,7.00
2022-09-22T22:48:53.509Z,6.90
2022-09-22T22:51:24.287Z,6.90
2022-09-22T22:53:53.044Z,6.80
2022-09-22T22:56:23.175Z,6.80
2022-09-22T22:58:51.240Z,6.70
2022-09-22T23:01:21.101Z,6.70
2022-09-22T23:03:55.618Z,6.70
2022-09-22T23:06:27.491Z,6.60
2022-09-22T23:08:54.891Z,6.70
2022-09-22T23:11:30.667Z,6.70
2022-09-22T23:14:02.075Z,6.60
2022-09-22T23:16:31.268Z,6.60
2022-09-22T23:19:01.376Z,6.60
2022-09-22T23:21:30.365Z,6.60
2022-09-22T23:23:57.640Z,6.60
2022-09-22T23:26:24.772Z,6.60
2022-09-22T23:28:52.680Z,6.40
2022-09-22T23:31:22.294Z,6.40
2022-09-22T23:33:51.536Z,6.30
2022-09-22T23:36:24.839Z,6.30
2022-09-22T23:39:03.897Z,6.30
2022-09-22T23:41:36.417Z,6.30
2022-09-22T23:44:06.817Z,6.30
2022-09-22T23:46:34.923Z,6.30
2022-09-22T23:49:02.548Z,6.20
2022-09-22T23:51:30.054Z,6.20
2022-09-22T23:53:57.266Z,6.10
2022-09-22T23:56:25.354Z,6.10
2022-09-22T23:58:53.006Z,6.10
